createdAt,value
2022-08-22T00:01:39.665Z,19
2022-08-22T00:02:47.030Z,20
2022-08-22T00:03:02.741Z,20.5
2022-08-22T00:03:03.386Z,21.6
2022-08-22T00:03:08.440Z,20.5
2022-08-22T00:03:37.281Z,18.9
2022-08-22T00:05:42.869Z,19
2022-08-22T00:07:40.483Z,19
2022-08-22T00:09:38.110Z,18.9
2022-08-22T00:11:35.703Z,19
2022-08-22T00:13:33.294Z,19
2022-08-22T00:15:43.511Z,19
2022-08-22T00:17:28.495Z,19
2022-08-22T00:19:34.051Z,18.9
2022-08-22T00:21:31.679Z,19
2022-08-22T00:23:29.305Z,18.8
2022-08-22T00:25:26.912Z,18.8
2022-08-22T00:27:24.519Z,18.9
2022-08-22T00:33:25.296Z,18.9
2022-08-22T00:39:18.177Z,19
2022-08-22T00:41:15.769Z,19
2022-08-22T00:47:16.567Z,18.8
2022-08-22T00:51:11.768Z,18.8
2022-08-22T00:53:29.116Z,18.9
2022-08-22T00:55:26.723Z,19
2022-08-22T01:01:27.581Z,18.9
2022-08-22T01:03:25.133Z,18.9
2022-08-22T01:15:18.792Z,18.8
2022-08-22T01:17:16.381Z,18.8
2022-08-22T01:23:09.213Z,18.8
2022-08-22T01:29:10.434Z,18.7
2022-08-22T01:31:07.568Z,18.8
2022-08-22T01:33:05.181Z,18.8
2022-08-22T01:35:02.783Z,18.7
2022-08-22T01:37:00.401Z,18.7
2022-08-22T01:38:58.014Z,18.8
2022-08-22T01:41:03.591Z,18.7
2022-08-22T01:43:01.204Z,18.7
2022-08-22T01:44:58.828Z,18.7
2022-08-22T01:46:01.609Z,18.7
2022-08-22T01:47:59.435Z,18.6
2022-08-22T01:49:56.841Z,18.6
2022-08-22T01:55:57.648Z,18.5
2022-08-22T01:57:55.377Z,18.5
2022-08-22T01:59:52.938Z,18.6
2022-08-22T02:09:48.936Z,18.6
2022-08-22T02:11:46.570Z,18.6
2022-08-22T02:13:44.181Z,18.4
2022-08-22T02:15:41.798Z,18.5
2022-08-22T02:17:39.412Z,18.4
2022-08-22T02:19:37.066Z,18.4
2022-08-22T02:23:40.238Z,18.5
2022-08-22T02:25:37.866Z,18.5
2022-08-22T02:31:30.743Z,18.4
2022-08-22T02:33:28.337Z,18.2
2022-08-22T02:35:33.929Z,18.2
2022-08-22T02:37:31.554Z,18.2
2022-08-22T02:39:29.167Z,18.2
2022-08-22T02:40:31.963Z,18.2
2022-08-22T02:42:29.599Z,18.2
2022-08-22T02:44:27.200Z,18.1
2022-08-22T02:46:24.825Z,18
2022-08-22T02:48:30.417Z,18.1
2022-08-22T02:50:28.004Z,18
2022-08-22T02:58:18.426Z,18.1
2022-08-22T03:00:32.120Z,18.2
2022-08-22T03:02:21.633Z,18.2
2022-08-22T03:04:23.882Z,18.2
2022-08-22T03:06:16.897Z,18.2
2022-08-22T03:08:14.475Z,18.2
2022-08-22T03:10:12.091Z,18.3
2022-08-22T03:12:09.730Z,18.3
2022-08-22T03:14:07.352Z,18.1
2022-08-22T03:18:10.539Z,17.9
2022-08-22T03:20:08.151Z,17.9
2022-08-22T03:22:05.893Z,17.9
2022-08-22T03:24:03.394Z,18
2022-08-22T03:26:01.050Z,17.9
2022-08-22T03:27:58.662Z,18
2022-08-22T03:30:04.272Z,18.1
2022-08-22T03:32:01.864Z,18.2
2022-08-22T03:34:01.047Z,18.2
2022-08-22T03:37:01.352Z,18.2
2022-08-22T03:38:58.969Z,18.2
2022-08-22T03:40:56.609Z,18.1
2022-08-22T03:43:02.188Z,18.1
2022-08-22T03:44:59.803Z,18
2022-08-22T03:46:57.404Z,18
2022-08-22T03:50:54.541Z,18
2022-08-22T03:52:50.297Z,17.9
2022-08-22T03:54:47.924Z,18.1
2022-08-22T03:56:54.091Z,18.1
2022-08-22T03:58:51.092Z,18.1
2022-08-22T04:00:48.771Z,17.9
2022-08-22T04:02:46.334Z,18.1
2022-08-22T04:04:43.964Z,17.9
2022-08-22T04:06:41.561Z,18
2022-08-22T04:08:43.910Z,17.9
2022-08-22T04:14:39.975Z,18
2022-08-22T04:16:37.596Z,18.2
2022-08-22T04:18:35.200Z,18
2022-08-22T04:20:32.823Z,18.1
2022-08-22T04:22:30.434Z,18.1
2022-08-22T04:24:35.990Z,18.1
2022-08-22T04:26:33.770Z,17.9
2022-08-22T04:28:31.242Z,17.8
2022-08-22T04:30:58.188Z,17.9
2022-08-22T04:32:55.786Z,18
2022-08-22T04:36:59.006Z,18
2022-08-22T04:38:56.592Z,18
2022-08-22T04:40:54.201Z,17.9
2022-08-22T04:42:51.824Z,17.9
2022-08-22T04:44:49.466Z,18
2022-08-22T04:46:47.052Z,18.1
2022-08-22T04:48:44.691Z,18.1
2022-08-22T04:50:50.272Z,18
2022-08-22T04:52:47.877Z,18
2022-08-22T04:56:43.161Z,18.1
2022-08-22T04:58:40.719Z,18.1
2022-08-22T05:00:38.334Z,17.9
2022-08-22T05:02:35.950Z,18
2022-08-22T05:04:41.530Z,17.9
2022-08-22T05:06:39.341Z,17.8
2022-08-22T05:08:36.805Z,17.7
2022-08-22T05:10:34.417Z,17.8
2022-08-22T05:12:32.025Z,17.8
2022-08-22T05:14:29.630Z,17.9
2022-08-22T05:16:27.238Z,17.9
2022-08-22T05:18:32.793Z,17.8
2022-08-22T05:20:30.434Z,17.9
2022-08-22T05:22:28.042Z,17.9
2022-08-22T05:25:28.448Z,17.9
2022-08-22T05:27:26.068Z,17.9
2022-08-22T05:29:23.723Z,17.8
2022-08-22T05:33:26.959Z,17.8
2022-08-22T05:39:19.803Z,17.6
2022-08-22T05:41:17.429Z,17.7
2022-08-22T05:43:15.040Z,17.6
2022-08-22T05:45:20.608Z,17.6
2022-08-22T05:47:18.248Z,17.6
2022-08-22T05:49:15.880Z,17.7
2022-08-22T05:53:11.157Z,17.7
2022-08-22T05:55:08.737Z,17.8
2022-08-22T05:57:07.957Z,17.7
2022-08-22T05:59:11.948Z,17.8
2022-08-22T06:01:09.582Z,17.8
2022-08-22T06:03:07.174Z,17.9
2022-08-22T06:05:08.647Z,17.8
2022-08-22T06:10:57.644Z,18
2022-08-22T06:15:00.834Z,17.9
2022-08-22T06:16:58.452Z,17.9
2022-08-22T06:18:01.250Z,18
2022-08-22T06:19:58.849Z,17.9
2022-08-22T06:21:56.457Z,18
2022-08-22T06:23:54.107Z,18.1
2022-08-22T06:25:59.675Z,18.1
2022-08-22T06:27:57.496Z,18.1
2022-08-22T06:33:50.156Z,18.1
2022-08-22T06:35:47.829Z,18
2022-08-22T06:37:45.360Z,18.1
2022-08-22T06:39:50.997Z,18.2
2022-08-22T06:41:48.546Z,18.2
2022-08-22T06:43:46.157Z,18.2
2022-08-22T06:45:43.802Z,18.3
2022-08-22T06:47:41.414Z,18.1
2022-08-22T06:49:39.035Z,18.3
2022-08-22T06:51:36.618Z,18.2
2022-08-22T06:53:47.671Z,18.4
2022-08-22T06:55:39.815Z,18.4
2022-08-22T06:57:37.423Z,18.5
2022-08-22T06:59:35.019Z,18.5
2022-08-22T07:01:32.656Z,18.8
2022-08-22T07:03:30.228Z,18.8
2022-08-22T07:05:27.886Z,18.8
2022-08-22T07:07:33.423Z,18.8
2022-08-22T07:09:31.034Z,19
2022-08-22T07:11:28.657Z,19
2022-08-22T07:12:31.429Z,18.9
2022-08-22T07:14:29.029Z,18.9
2022-08-22T07:16:26.666Z,19.1
2022-08-22T07:18:24.221Z,19.1
2022-08-22T07:20:29.773Z,19.3
2022-08-22T07:22:27.401Z,19.4
2022-08-22T07:24:25.004Z,19.4
2022-08-22T07:28:20.190Z,19.5
2022-08-22T07:30:17.792Z,19.5
2022-08-22T07:32:15.387Z,19.5
2022-08-22T07:34:20.945Z,19.6
2022-08-22T07:36:18.546Z,19.6
2022-08-22T07:40:13.859Z,19.8
2022-08-22T07:42:11.381Z,19.8
2022-08-22T07:44:08.980Z,19.9
2022-08-22T07:46:06.563Z,19.7
2022-08-22T07:48:12.193Z,19.8
2022-08-22T07:50:09.732Z,19.9
2022-08-22T07:52:07.325Z,20
2022-08-22T07:54:04.934Z,19.8
2022-08-22T07:56:02.512Z,19.9
2022-08-22T07:58:00.288Z,19.9
2022-08-22T07:59:57.689Z,20
2022-08-22T08:02:03.224Z,20.1
2022-08-22T08:04:00.828Z,20.1
2022-08-22T08:05:58.423Z,20.4
2022-08-22T08:08:21.624Z,20.5
2022-08-22T08:10:19.218Z,20.5
2022-08-22T08:12:16.818Z,20.4
2022-08-22T08:14:22.343Z,20.6
2022-08-22T08:16:19.941Z,20.7
2022-08-22T08:18:17.512Z,20.8
2022-08-22T08:20:15.150Z,21.1
2022-08-22T08:22:12.696Z,21.1
2022-08-22T08:26:07.866Z,21.3
2022-08-22T08:30:14.775Z,21.5
2022-08-22T08:34:06.173Z,21.5
2022-08-22T08:36:04.120Z,21.3
2022-08-22T08:38:01.345Z,21.3
2022-08-22T08:39:59.028Z,21.6
2022-08-22T08:42:04.462Z,21.4
2022-08-22T08:44:02.021Z,21.4
2022-08-22T08:45:59.595Z,21.4
2022-08-22T08:47:57.147Z,21.7
2022-08-22T08:49:54.724Z,21.9
2022-08-22T08:53:49.842Z,22
2022-08-22T08:59:50.516Z,22
2022-08-22T09:00:53.354Z,22
2022-08-22T09:04:48.409Z,22.1
2022-08-22T09:08:55.500Z,22.5
2022-08-22T09:10:49.092Z,22.6
2022-08-22T09:12:56.969Z,22.6
2022-08-22T09:14:45.728Z,22.6
2022-08-22T09:18:40.805Z,22.7
2022-08-22T09:20:38.338Z,22.6
2022-08-22T09:22:49.870Z,22.7
2022-08-22T09:24:41.401Z,22.6
2022-08-22T09:26:38.959Z,22.6
2022-08-22T09:28:36.515Z,22.8
2022-08-22T09:30:34.070Z,22.7
2022-08-22T09:32:31.592Z,22.8
2022-08-22T09:36:34.663Z,22.9
2022-08-22T09:38:33.075Z,22.9
2022-08-22T09:40:29.747Z,23.2
2022-08-22T09:44:24.815Z,23
2022-08-22T09:46:22.336Z,23.2
2022-08-22T09:48:19.858Z,23.4
2022-08-22T09:50:25.366Z,23.3
2022-08-22T09:54:20.391Z,23.6
2022-08-22T09:55:34.941Z,23.5
2022-08-22T09:59:18.184Z,23.6
2022-08-22T10:01:15.769Z,23.7
2022-08-22T10:03:21.210Z,23.7
2022-08-22T10:05:40.270Z,23.8
2022-08-22T10:07:16.242Z,23.9
2022-08-22T10:09:13.758Z,23.9
2022-08-22T10:11:11.238Z,24.3
2022-08-22T10:15:06.993Z,24.2
2022-08-22T10:17:11.718Z,24.5
2022-08-22T10:19:09.245Z,24.4
2022-08-22T10:21:06.720Z,24.2
2022-08-22T10:23:04.238Z,24.2
2022-08-22T10:25:01.732Z,24.5
2022-08-22T10:26:59.216Z,24.6
2022-08-22T10:28:56.701Z,24.5
2022-08-22T10:31:02.203Z,24.8
2022-08-22T10:32:59.793Z,25.1
2022-08-22T10:34:57.152Z,25.2
2022-08-22T10:36:53.262Z,25.3
2022-08-22T10:38:50.811Z,25.6
2022-08-22T10:40:48.303Z,25.8
2022-08-22T10:42:45.792Z,25.6
2022-08-22T10:44:51.231Z,25.5
2022-08-22T10:46:48.703Z,25.4
2022-08-22T10:48:46.189Z,25.6
2022-08-22T10:49:51.108Z,25.6
2022-08-22T10:51:46.421Z,25.6
2022-08-22T10:57:50.711Z,25.5
2022-08-22T10:59:44.303Z,25.6
2022-08-22T11:05:36.688Z,25.4
2022-08-22T11:09:36.885Z,25.5
2022-08-22T11:11:37.053Z,25.8
2022-08-22T11:13:34.497Z,25.9
2022-08-22T11:15:34.982Z,25.9
2022-08-22T11:21:24.255Z,26.3
2022-08-22T11:23:21.757Z,26
2022-08-22T11:25:34.108Z,25.9
2022-08-22T11:27:25.311Z,26.2
2022-08-22T11:29:21.961Z,26.6
2022-08-22T11:31:19.372Z,27
2022-08-22T11:35:14.216Z,27.7
2022-08-22T11:37:12.313Z,27.5
2022-08-22T11:39:18.162Z,27.6
2022-08-22T11:41:14.372Z,27.6
2022-08-22T11:43:12.071Z,28.3
2022-08-22T11:45:34.430Z,28.4
2022-08-22T11:47:31.798Z,28.7
2022-08-22T11:49:32.718Z,28.6
2022-08-22T11:51:34.462Z,28.1
2022-08-22T11:53:31.870Z,28
2022-08-22T11:59:23.692Z,27.5
2022-08-22T12:01:20.993Z,27.5
2022-08-22T12:05:26.470Z,27.6
2022-08-22T12:09:18.196Z,27.5
2022-08-22T12:11:15.494Z,27.6
2022-08-22T12:13:12.790Z,27.7
2022-08-22T12:17:07.374Z,27.8
2022-08-22T12:19:13.227Z,27.8
2022-08-22T12:21:09.971Z,27.7
2022-08-22T12:25:04.583Z,28
2022-08-22T12:27:01.842Z,28.1
2022-08-22T12:28:59.123Z,28.2
2022-08-22T12:30:56.428Z,28.4
2022-08-22T12:33:01.721Z,27.8
2022-08-22T12:34:59.011Z,27.8
2022-08-22T12:36:56.279Z,27.8
2022-08-22T12:37:58.939Z,28.1
2022-08-22T12:39:56.271Z,28.2
2022-08-22T12:41:53.498Z,28.1
2022-08-22T12:43:50.774Z,27.9
2022-08-22T12:45:56.097Z,27.9
2022-08-22T12:47:53.375Z,28
2022-08-22T12:49:52.514Z,27.8
2022-08-22T12:51:47.955Z,27.7
2022-08-22T12:53:45.242Z,27.7
2022-08-22T12:55:42.543Z,27.5
2022-08-22T12:57:39.817Z,27.8
2022-08-22T12:59:45.185Z,27.8
2022-08-22T13:01:43.469Z,27.9
2022-08-22T13:05:40.652Z,28
2022-08-22T13:09:31.652Z,27.9
2022-08-22T13:11:28.972Z,28
2022-08-22T13:13:37.056Z,28
2022-08-22T13:15:31.741Z,28
2022-08-22T13:17:28.875Z,28.6
2022-08-22T13:19:26.176Z,29
2022-08-22T13:21:23.493Z,29.2
2022-08-22T13:23:20.796Z,29.3
2022-08-22T13:25:25.468Z,29.3
2022-08-22T13:27:23.361Z,29.4
2022-08-22T13:29:26.945Z,29.2
2022-08-22T13:31:17.897Z,28.9
2022-08-22T13:36:15.047Z,29.2
2022-08-22T13:38:12.538Z,29.2
2022-08-22T13:40:17.695Z,29.2
2022-08-22T13:42:27.583Z,29.4
2022-08-22T13:46:11.017Z,29.4
2022-08-22T13:48:08.959Z,28.8
2022-08-22T13:50:03.824Z,28.7
2022-08-22T13:52:01.049Z,28.7
2022-08-22T13:54:11.135Z,28.2
2022-08-22T13:56:03.598Z,28.1
2022-08-22T13:58:00.841Z,28.1
2022-08-22T14:00:05.876Z,28
2022-08-22T14:01:55.372Z,28
2022-08-22T14:03:52.593Z,27.9
2022-08-22T14:05:49.899Z,28
2022-08-22T14:07:55.200Z,28.3
2022-08-22T14:09:54.226Z,28.3
2022-08-22T14:11:49.728Z,28
2022-08-22T14:13:47.055Z,28.1
2022-08-22T14:15:45.300Z,28.1
2022-08-22T14:17:42.884Z,27.7
2022-08-22T14:19:52.618Z,27.9
2022-08-22T14:21:44.197Z,28.1
2022-08-22T14:23:41.485Z,28
2022-08-22T14:25:38.858Z,28
2022-08-22T14:26:47.338Z,28.1
2022-08-22T14:28:38.727Z,28
2022-08-22T14:30:36.027Z,28.1
2022-08-22T14:32:35.348Z,28.3
2022-08-22T14:34:38.654Z,28.5
2022-08-22T14:36:35.946Z,28.7
2022-08-22T14:38:33.239Z,28.7
2022-08-22T14:40:30.564Z,28.9
2022-08-22T14:42:27.837Z,29
2022-08-22T14:44:25.181Z,28.9
2022-08-22T14:46:22.482Z,29
2022-08-22T14:48:30.267Z,28.5
2022-08-22T14:50:25.103Z,28.6
2022-08-22T14:54:21.267Z,28.7
2022-08-22T14:56:18.567Z,28.7
2022-08-22T14:58:15.831Z,28.5
2022-08-22T15:00:13.117Z,28.4
2022-08-22T15:02:18.469Z,28.3
2022-08-22T15:04:19.496Z,28.4
2022-08-22T15:06:13.076Z,28.3
2022-08-22T15:08:10.402Z,28.2
2022-08-22T15:10:07.805Z,28
2022-08-22T15:12:05.033Z,27.8
2022-08-22T15:14:02.320Z,27.7
2022-08-22T15:16:09.499Z,27.7
2022-08-22T15:18:05.232Z,27.8
2022-08-22T15:20:02.322Z,27.9
2022-08-22T15:22:25.769Z,27.7
2022-08-22T15:24:20.229Z,27.7
2022-08-22T15:26:17.540Z,27.7
2022-08-22T15:28:22.918Z,27.6
2022-08-22T15:30:21.075Z,27.9
2022-08-22T15:34:18.031Z,27.9
2022-08-22T15:36:12.269Z,27.7
2022-08-22T15:40:08.571Z,27.9
2022-08-22T15:42:12.312Z,27.9
2022-08-22T15:44:11.958Z,27.8
2022-08-22T15:50:01.783Z,28.2
2022-08-22T15:51:59.018Z,28.2
2022-08-22T15:53:56.361Z,28.2
2022-08-22T15:56:04.894Z,28
2022-08-22T15:57:59.288Z,28.1
2022-08-22T15:59:56.438Z,27.9
2022-08-22T16:01:53.796Z,28
2022-08-22T16:03:51.105Z,27.7
2022-08-22T16:05:53.186Z,27.7
2022-08-22T16:07:45.853Z,27.6
2022-08-22T16:09:51.201Z,27.6
2022-08-22T16:11:48.573Z,27.6
2022-08-22T16:13:45.933Z,27.5
2022-08-22T16:14:48.620Z,27.5
2022-08-22T16:16:45.980Z,27.4
2022-08-22T16:18:43.366Z,27.3
2022-08-22T16:20:40.761Z,27.1
2022-08-22T16:22:47.423Z,27.3
2022-08-22T16:24:43.498Z,27.4
2022-08-22T16:26:40.882Z,27.2
2022-08-22T16:28:57.250Z,27.2
2022-08-22T16:30:35.653Z,27.2
2022-08-22T16:32:33.045Z,26.9
2022-08-22T16:34:30.446Z,27.1
2022-08-22T16:38:36.487Z,27
2022-08-22T16:40:30.745Z,27.1
2022-08-22T16:42:28.057Z,27
2022-08-22T16:44:25.507Z,26.8
2022-08-22T16:46:22.889Z,26.9
2022-08-22T16:48:20.321Z,26.7
2022-08-22T16:50:25.731Z,26.6
2022-08-22T16:54:20.550Z,26.7
2022-08-22T16:56:17.978Z,26.6
2022-08-22T16:58:15.396Z,26.6
2022-08-22T17:00:12.829Z,26.6
2022-08-22T17:02:10.247Z,26.6
2022-08-22T17:04:15.675Z,26.4
2022-08-22T17:06:13.123Z,26.4
2022-08-22T17:08:10.531Z,26.4
2022-08-22T17:09:13.243Z,26.3
2022-08-22T17:11:10.681Z,26.5
2022-08-22T17:13:08.118Z,26.5
2022-08-22T17:15:05.614Z,26.5
2022-08-22T17:17:10.988Z,26.4
2022-08-22T17:19:08.458Z,26.3
2022-08-22T17:21:05.897Z,26.3
2022-08-22T17:23:03.334Z,26.3
2022-08-22T17:25:00.770Z,26.4
2022-08-22T17:26:58.217Z,26.4
2022-08-22T17:28:55.668Z,26.3
2022-08-22T17:31:01.103Z,26.3
2022-08-22T17:32:59.188Z,26.3
2022-08-22T17:34:55.990Z,26.2
2022-08-22T17:36:53.429Z,26.2
2022-08-22T17:38:50.898Z,26.1
2022-08-22T17:40:48.340Z,26.1
2022-08-22T17:44:51.246Z,25.9
2022-08-22T17:46:48.666Z,25.9
2022-08-22T17:48:46.121Z,25.9
2022-08-22T17:50:43.608Z,26
2022-08-22T17:52:41.046Z,26
2022-08-22T17:54:38.495Z,25.9
2022-08-22T17:58:44.063Z,25.9
2022-08-22T18:00:38.850Z,25.8
2022-08-22T18:02:36.325Z,25.9
2022-08-22T18:03:39.048Z,25.8
2022-08-22T18:05:36.504Z,25.6
2022-08-22T18:07:33.966Z,25.5
2022-08-22T18:09:31.429Z,25.6
2022-08-22T18:11:40.344Z,25.4
2022-08-22T18:13:34.326Z,25.5
2022-08-22T18:15:31.805Z,25.5
2022-08-22T18:17:29.267Z,25.4
2022-08-22T18:21:24.263Z,25.4
2022-08-22T18:23:39.303Z,25.3
2022-08-22T18:25:27.180Z,25.2
2022-08-22T18:27:34.280Z,25.2
2022-08-22T18:29:22.136Z,25.1
2022-08-22T18:31:19.613Z,25.2
2022-08-22T18:33:17.097Z,25.2
2022-08-22T18:35:14.634Z,25.1
2022-08-22T18:37:12.048Z,25.2
2022-08-22T18:39:17.500Z,25
2022-08-22T18:41:14.994Z,25.2
2022-08-22T18:43:12.482Z,25
2022-08-22T18:47:07.458Z,24.9
2022-08-22T18:49:15.428Z,24.9
2022-08-22T18:51:02.456Z,24.8
2022-08-22T18:53:07.925Z,24.8
2022-08-22T18:55:05.380Z,24.8
2022-08-22T18:59:23.661Z,24.7
2022-08-22T19:01:21.264Z,24.7
2022-08-22T19:03:18.642Z,24.6
2022-08-22T19:07:21.609Z,24.6
2022-08-22T19:09:19.098Z,24.5
2022-08-22T19:11:16.770Z,24.4
2022-08-22T19:15:11.628Z,24.3
2022-08-22T19:19:17.658Z,24.1
2022-08-22T19:21:12.068Z,23.9
2022-08-22T19:23:09.552Z,24
2022-08-22T19:29:02.097Z,23.8
2022-08-22T19:30:59.594Z,23.8
2022-08-22T19:33:05.075Z,23.6
2022-08-22T19:42:52.665Z,23.6
2022-08-22T19:44:50.154Z,23.5
2022-08-22T19:46:55.692Z,23.5
2022-08-22T19:48:53.164Z,23.4
2022-08-22T19:50:50.692Z,23.5
2022-08-22T19:51:53.477Z,23.3
2022-08-22T19:53:50.950Z,23.4
2022-08-22T19:55:48.492Z,23.3
2022-08-22T19:59:51.512Z,23.3
2022-08-22T20:01:49.059Z,23.4
2022-08-22T20:09:39.170Z,23.2
2022-08-22T20:13:42.223Z,23.2
2022-08-22T20:15:39.756Z,23.1
2022-08-22T20:21:38.042Z,23.2
2022-08-22T20:23:29.928Z,23
2022-08-22T20:27:32.939Z,22.8
2022-08-22T20:29:30.527Z,22.9
2022-08-22T20:31:28.024Z,22.9
2022-08-22T20:33:25.570Z,22.9
2022-08-22T20:37:36.034Z,23
2022-08-22T20:39:19.705Z,22.8
2022-08-22T20:45:20.304Z,22.8
2022-08-22T20:48:20.586Z,22.8
2022-08-22T20:50:18.144Z,22.7
2022-08-22T20:54:21.164Z,22.6
2022-08-22T20:56:18.736Z,22.7
2022-08-22T21:00:13.865Z,22.7
2022-08-22T21:02:11.402Z,22.5
2022-08-22T21:04:08.925Z,22.5
2022-08-22T21:08:11.975Z,22.5
2022-08-22T21:10:09.542Z,22.4
2022-08-22T21:14:04.625Z,22.4
2022-08-22T21:16:02.175Z,22.3
2022-08-22T21:17:59.892Z,22.3
2022-08-22T21:22:02.804Z,22.1
2022-08-22T21:24:01.070Z,22.2
2022-08-22T21:25:57.903Z,22.1
2022-08-22T21:27:55.497Z,22.1
2022-08-22T21:29:53.016Z,22.1
2022-08-22T21:31:50.595Z,21.9
2022-08-22T21:33:48.152Z,22.1
2022-08-22T21:35:53.665Z,21.9
2022-08-22T21:37:51.227Z,21.9
2022-08-22T21:39:48.876Z,22
2022-08-22T21:40:51.525Z,21.9
2022-08-22T21:42:49.079Z,21.9
2022-08-22T21:46:44.230Z,21.9
2022-08-22T21:48:49.758Z,21.7
2022-08-22T21:52:44.912Z,21.7
2022-08-22T21:56:40.015Z,21.6
2022-08-22T22:00:35.257Z,21.7
2022-08-22T22:02:40.711Z,21.6
2022-08-22T22:04:38.260Z,21.5
2022-08-22T22:06:35.836Z,21.4
2022-08-22T22:08:33.394Z,21.4
2022-08-22T22:10:30.967Z,21.3
2022-08-22T22:12:28.511Z,21.3
2022-08-22T22:14:26.102Z,21.2
2022-08-22T22:16:31.641Z,21.2
2022-08-22T22:18:29.212Z,21.3
2022-08-22T22:20:26.772Z,21.3
2022-08-22T22:26:19.489Z,21.3
2022-08-22T22:28:17.086Z,21.2
2022-08-22T22:30:22.571Z,21.1
2022-08-22T22:32:20.171Z,21.1
2022-08-22T22:36:44.634Z,21.1
2022-08-22T22:38:42.237Z,21.1
2022-08-22T22:40:39.807Z,21.1
2022-08-22T22:42:45.325Z,21
2022-08-22T22:44:46.451Z,20.9
2022-08-22T22:46:40.479Z,21
2022-08-22T22:48:38.044Z,20.9
2022-08-22T22:54:30.813Z,20.9
2022-08-22T22:58:33.933Z,20.9
2022-08-22T23:00:31.553Z,20.9
2022-08-22T23:02:29.096Z,20.8
2022-08-22T23:04:26.654Z,20.7
2022-08-22T23:06:24.238Z,20.6
2022-08-22T23:08:21.859Z,20.6
2022-08-22T23:10:27.396Z,20.5
2022-08-22T23:12:24.986Z,20.5
2022-08-22T23:14:22.564Z,20.5
2022-08-22T23:16:20.127Z,20.4
2022-08-22T23:18:17.740Z,20.4
2022-08-22T23:20:15.325Z,20.4
2022-08-22T23:24:18.450Z,20.4
2022-08-22T23:26:16.029Z,20.5
2022-08-22T23:29:16.365Z,20.4
2022-08-22T23:31:13.951Z,20.5
2022-08-22T23:33:11.559Z,20.3
2022-08-22T23:35:09.165Z,20.4
2022-08-22T23:37:14.707Z,20.4
2022-08-22T23:39:12.468Z,20.3
2022-08-22T23:41:10.123Z,20.5
2022-08-22T23:43:07.466Z,20.5
2022-08-22T23:49:00.295Z,20.4
2022-08-22T23:53:03.414Z,20.3
2022-08-22T23:56:58.606Z,20.2
2022-08-22T23:58:56.203Z,20.2
